Time;durP1;ratioP1;P1;durP2;ratioP2;P2;SDS_P1;SDS_P2;PMS_P1;PMS_P2;Temp;Humidity;BMP_temperature;BMP_pressure;BME280_temperature;BME280_humidity;BME280_pressure;Samples;Min_cycle;Max_cycle;Signal;HPM_P1;HPM_P2
2021/12/04 00:00:42;;;;;;;3.95;3.67;;;0.40;99.90;;;;;;5033019;28;20296;-70
2021/12/04 00:03:09;;;;;;;3.40;3.20;;;0.40;99.90;;;;;;5035880;28;20319;-70
2021/12/04 00:05:39;;;;;;;3.17;3.03;;;0.40;99.90;;;;;;5037010;28;20209;-70
2021/12/04 00:08:06;;;;;;;5.03;3.88;;;0.40;99.90;;;;;;5036869;28;20201;-70
2021/12/04 00:10:33;;;;;;;3.17;2.97;;;0.40;99.90;;;;;;5037249;28;20205;-69
2021/12/04 00:13:02;;;;;;;3.05;2.83;;;0.40;99.90;;;;;;5037162;28;20217;-68
2021/12/04 00:15:30;;;;;;;3.25;3.05;;;0.40;99.90;;;;;;5037076;28;20208;-69
2021/12/04 00:17:59;;;;;;;2.78;2.67;;;0.30;99.90;;;;;;5036704;28;20197;-70
2021/12/04 00:20:30;;;;;;;2.60;2.50;;;0.40;99.90;;;;;;5036674;28;20665;-70
2021/12/04 00:22:59;;;;;;;2.95;2.75;;;0.40;99.90;;;;;;5036332;28;20324;-68
2021/12/04 00:25:27;;;;;;;2.90;2.70;;;0.40;99.90;;;;;;5036619;28;20192;-69
2021/12/04 00:27:55;;;;;;;2.63;2.53;;;0.40;99.90;;;;;;5036757;28;20673;-70
2021/12/04 00:30:25;;;;;;;2.72;2.63;;;0.50;99.90;;;;;;5035574;28;20559;-69
2021/12/04 00:32:57;;;;;;;3.08;2.97;;;0.50;99.90;;;;;;5036756;28;20550;-71
2021/12/04 00:35:34;;;;;;;2.70;2.50;;;0.50;99.90;;;;;;5036484;28;20192;-70
2021/12/04 00:49:12;;;;;;;5.32;3.65;;;0.40;99.90;;;;;;5036039;28;20680;-71
2021/12/04 00:51:42;;;;;;;3.72;3.45;;;0.30;99.90;;;;;;5036024;28;20189;-70
2021/12/04 00:54:12;;;;;;;3.75;3.45;;;0.30;99.90;;;;;;5035965;28;20585;-70
2021/12/04 00:56:41;;;;;;;3.33;3.13;;;0.30;99.90;;;;;;5035755;28;20197;-70
2021/12/04 00:59:09;;;;;;;3.25;3.05;;;0.30;99.90;;;;;;5036305;28;20279;-70
2021/12/04 01:01:39;;;;;;;3.03;2.80;;;0.30;99.90;;;;;;5036316;28;20205;-70
2021/12/04 01:04:10;;;;;;;3.40;3.10;;;0.20;99.90;;;;;;5035808;28;20703;-70
2021/12/04 01:06:38;;;;;;;3.40;3.20;;;0.20;99.90;;;;;;5036198;28;20185;-70
2021/12/04 01:09:08;;;;;;;2.67;2.58;;;0.20;99.90;;;;;;5036059;28;20295;-70
2021/12/04 01:11:36;;;;;;;2.72;2.53;;;0.30;99.90;;;;;;5034956;28;20224;-70
2021/12/04 01:14:04;;;;;;;2.53;2.42;;;0.30;99.90;;;;;;5035141;28;20821;-69
2021/12/04 01:16:31;;;;;;;2.70;2.50;;;0.30;99.90;;;;;;5035611;28;20202;-70
2021/12/04 01:18:59;;;;;;;3.42;3.05;;;0.30;99.90;;;;;;5035853;28;20283;-71
2021/12/04 01:21:27;;;;;;;2.70;2.60;;;0.30;99.90;;;;;;5035786;28;20296;-70
2021/12/04 01:23:55;;;;;;;2.55;2.40;;;0.30;99.90;;;;;;5066843;22;20799;-69
2021/12/04 01:26:22;;;;;;;2.38;2.28;;;0.40;99.90;;;;;;5055621;28;20208;-69
2021/12/04 01:28:49;;;;;;;2.30;2.28;;;0.40;99.90;;;;;;5055205;28;20642;-69
2021/12/04 01:31:15;;;;;;;3.38;3.17;;;0.40;99.90;;;;;;5056037;28;20200;-70
2021/12/04 01:33:42;;;;;;;2.72;2.63;;;0.30;99.90;;;;;;5055051;28;20600;-71
2021/12/04 01:36:10;;;;;;;2.85;2.65;;;0.30;99.90;;;;;;5055099;28;20236;-70
2021/12/04 01:38:37;;;;;;;2.53;2.33;;;0.30;99.90;;;;;;5055329;28;20296;-70
2021/12/04 01:41:05;;;;;;;2.58;2.47;;;0.40;99.90;;;;;;5055019;28;20643;-70
2021/12/04 01:43:31;;;;;;;2.22;2.13;;;0.40;99.90;;;;;;5055066;28;20315;-70
2021/12/04 01:45:59;;;;;;;2.15;2.10;;;0.40;99.90;;;;;;5055211;28;20295;-70
2021/12/04 01:48:26;;;;;;;2.17;2.08;;;0.40;99.90;;;;;;5054794;28;20303;-70
2021/12/04 01:50:55;;;;;;;2.40;2.30;;;0.50;99.90;;;;;;5055094;28;20283;-70
2021/12/04 01:53:24;;;;;;;1.92;1.92;;;0.50;99.90;;;;;;5054997;28;20307;-70
2021/12/04 01:55:52;;;;;;;2.15;2.05;;;0.50;99.90;;;;;;5054979;28;20287;-70
2021/12/04 01:58:19;;;;;;;1.83;1.83;;;0.50;99.90;;;;;;5054716;28;20607;-70
2021/12/04 02:00:46;;;;;;;1.80;1.80;;;0.50;99.90;;;;;;5054851;28;20295;-69
2021/12/04 02:03:14;;;;;;;1.90;1.90;;;0.50;99.90;;;;;;5054744;28;20307;-69
2021/12/04 02:05:41;;;;;;;1.83;1.83;;;0.50;99.90;;;;;;5054450;28;20300;-69
2021/12/04 02:08:09;;;;;;;2.05;2.00;;;0.50;99.90;;;;;;5054431;28;20235;-69
2021/12/04 02:10:37;;;;;;;2.13;2.03;;;0.50;99.90;;;;;;5054672;28;20308;-70
2021/12/04 02:13:05;;;;;;;2.30;2.20;;;0.50;99.90;;;;;;5054302;28;20723;-71
2021/12/04 02:15:32;;;;;;;1.85;1.55;;;0.50;99.90;;;;;;5054285;28;20678;-70
2021/12/04 02:18:01;;;;;;;1.70;1.60;;;0.50;99.90;;;;;;5054314;28;20762;-70
2021/12/04 02:20:32;;;;;;;1.30;1.30;;;0.50;99.90;;;;;;5054622;28;20205;-70
2021/12/04 02:23:00;;;;;;;2.05;1.50;;;0.50;99.90;;;;;;5054316;28;20204;-70
2021/12/04 02:25:27;;;;;;;1.60;1.50;;;0.50;99.90;;;;;;5053300;28;20307;-70
2021/12/04 02:27:54;;;;;;;1.60;1.60;;;0.60;99.90;;;;;;5054356;28;20239;-70
2021/12/04 02:30:23;;;;;;;1.50;1.50;;;0.60;99.90;;;;;;5053991;28;20287;-70
2021/12/04 02:32:52;;;;;;;1.20;1.20;;;0.60;99.90;;;;;;5054304;28;20289;-70
2021/12/04 02:35:20;;;;;;;1.30;1.30;;;0.60;99.90;;;;;;5053838;28;20600;-70
2021/12/04 02:37:48;;;;;;;1.23;1.23;;;0.60;99.90;;;;;;5054228;28;20279;-70
2021/12/04 02:40:22;;;;;;;1.00;1.00;;;0.60;99.90;;;;;;5054159;28;20295;-70
2021/12/04 02:42:50;;;;;;;1.05;1.05;;;0.70;99.90;;;;;;5054116;28;20302;-70
2021/12/04 02:45:17;;;;;;;1.08;1.08;;;0.70;99.90;;;;;;5053717;28;20220;-70
2021/12/04 02:47:44;;;;;;;1.10;1.10;;;0.70;99.90;;;;;;5053997;28;20300;-70
2021/12/04 02:50:13;;;;;;;1.02;1.02;;;0.70;99.90;;;;;;5054035;28;20291;-70
2021/12/04 02:52:42;;;;;;;1.10;1.10;;;0.80;99.90;;;;;;5053986;28;20295;-70
2021/12/04 02:55:10;;;;;;;1.13;1.13;;;0.80;99.90;;;;;;5053943;28;20224;-70
2021/12/04 02:57:41;;;;;;;1.08;1.08;;;0.80;99.90;;;;;;5053801;28;20303;-70
2021/12/04 06:09:15;;;;;;;0.70;0.70;;;2.20;99.90;;;;;;5436200;22;20232;-67
2021/12/04 06:11:42;;;;;;;0.70;0.70;;;2.20;99.90;;;;;;5034739;28;20608;-66
2021/12/04 06:14:09;;;;;;;0.70;0.70;;;2.30;99.90;;;;;;5034713;28;20263;-66
2021/12/04 06:16:36;;;;;;;0.70;0.70;;;2.30;99.90;;;;;;5034684;28;20273;-66
2021/12/04 06:19:10;;;;;;;0.60;0.60;;;2.30;99.90;;;;;;5034882;28;20221;-66
2021/12/04 06:24:23;;;;;;;0.60;0.60;;;2.40;99.90;;;;;;5034714;28;20238;-72
2021/12/04 06:26:50;;;;;;;0.60;0.60;;;2.40;99.90;;;;;;5034811;28;20240;-73
2021/12/04 06:29:17;;;;;;;0.60;0.60;;;2.40;99.90;;;;;;5034720;28;20248;-74
2021/12/04 06:31:45;;;;;;;0.60;0.60;;;2.40;99.90;;;;;;5034623;28;20347;-73
2021/12/04 06:34:11;;;;;;;0.50;0.50;;;2.40;99.90;;;;;;5034501;28;20201;-73
2021/12/04 06:36:38;;;;;;;0.52;0.43;;;2.40;99.90;;;;;;5034547;28;20217;-72
2021/12/04 06:39:05;;;;;;;0.70;0.70;;;2.50;99.90;;;;;;5034497;28;20197;-73
2021/12/04 06:41:34;;;;;;;0.60;0.60;;;2.50;99.90;;;;;;5034413;28;20225;-73
2021/12/04 06:44:01;;;;;;;0.50;0.50;;;2.50;99.90;;;;;;5033984;28;20253;-73
2021/12/04 06:46:29;;;;;;;0.60;0.60;;;2.50;99.90;;;;;;5034064;28;20607;-73
2021/12/04 06:49:03;;;;;;;0.65;0.60;;;2.50;99.90;;;;;;5034357;28;20244;-73
2021/12/04 06:51:33;;;;;;;0.60;0.60;;;2.60;99.90;;;;;;5034355;28;20242;-72
2021/12/04 06:54:03;;;;;;;0.65;0.65;;;2.60;99.90;;;;;;5034329;28;20233;-72
2021/12/04 06:56:34;;;;;;;0.60;0.60;;;2.60;99.90;;;;;;5034629;28;20209;-72
2021/12/04 06:59:06;;;;;;;0.85;0.85;;;2.60;99.90;;;;;;5034183;28;20191;-72
2021/12/04 07:01:33;;;;;;;0.70;0.70;;;2.50;99.90;;;;;;5033995;28;20221;-73
2021/12/04 07:04:01;;;;;;;0.70;0.70;;;2.50;99.90;;;;;;5033997;28;20271;-73
2021/12/04 07:06:28;;;;;;;0.65;0.65;;;2.50;99.90;;;;;;5033966;28;20293;-73
2021/12/04 07:08:56;;;;;;;0.60;0.60;;;2.60;99.90;;;;;;5033615;28;20241;-74
2021/12/04 07:11:23;;;;;;;0.82;0.82;;;2.60;99.90;;;;;;5033324;28;20224;-72
2021/12/04 07:13:51;;;;;;;1.45;1.33;;;2.60;99.90;;;;;;5033716;28;20251;-72
2021/12/04 07:16:21;;;;;;;1.50;1.40;;;2.60;99.90;;;;;;5033741;28;20289;-73
2021/12/04 07:18:50;;;;;;;2.03;1.40;;;2.60;99.90;;;;;;5034403;28;20197;-72
2021/12/04 07:21:17;;;;;;;1.30;1.30;;;2.60;99.90;;;;;;5033469;28;20581;-72
2021/12/04 07:23:45;;;;;;;1.15;1.08;;;2.70;99.90;;;;;;5033865;28;20256;-72
2021/12/04 07:26:12;;;;;;;1.50;1.50;;;2.70;99.90;;;;;;5035632;28;20773;-73
2021/12/04 07:28:40;;;;;;;1.40;1.30;;;2.70;99.90;;;;;;5038602;28;20205;-73
2021/12/04 07:31:07;;;;;;;1.08;1.08;;;2.70;99.90;;;;;;5038862;28;20268;-73
2021/12/04 07:33:36;;;;;;;0.90;0.90;;;2.70;99.90;;;;;;5037501;28;20265;-72
2021/12/04 07:36:05;;;;;;;1.00;1.00;;;2.70;99.90;;;;;;5037630;28;20251;-72
2021/12/04 07:38:32;;;;;;;1.10;1.10;;;2.70;99.90;;;;;;5038000;28;20207;-73
2021/12/04 07:41:01;;;;;;;1.00;1.00;;;2.70;99.90;;;;;;5036149;28;20251;-72
2021/12/04 07:43:29;;;;;;;1.00;1.00;;;2.60;99.90;;;;;;5037237;28;20225;-73
2021/12/04 07:45:56;;;;;;;0.90;0.90;;;2.60;99.90;;;;;;5038317;28;20201;-73
2021/12/04 07:48:23;;;;;;;0.90;0.90;;;2.60;99.90;;;;;;5037231;28;20605;-72
2021/12/04 07:50:52;;;;;;;1.02;1.02;;;2.60;99.90;;;;;;5035502;28;20197;-72
2021/12/04 07:53:19;;;;;;;0.75;0.75;;;2.60;99.90;;;;;;5036148;28;20200;-73
2021/12/04 07:55:47;;;;;;;0.80;0.80;;;2.60;99.90;;;;;;5037404;28;20240;-72
2021/12/04 07:58:15;;;;;;;0.82;0.82;;;2.60;99.90;;;;;;5037486;28;20209;-72
2021/12/04 08:00:43;;;;;;;0.80;0.80;;;2.60;99.90;;;;;;5038193;28;20225;-73
2021/12/04 08:03:10;;;;;;;0.90;0.90;;;2.60;99.90;;;;;;5033118;28;20668;-72
2021/12/04 08:05:37;;;;;;;1.15;1.15;;;2.60;99.90;;;;;;5033244;28;20217;-72
2021/12/04 08:08:05;;;;;;;1.25;1.15;;;2.60;99.90;;;;;;5033422;28;20202;-72
2021/12/04 08:10:33;;;;;;;1.60;1.50;;;2.60;99.90;;;;;;5032839;28;20232;-71
2021/12/04 08:13:02;;;;;;;1.48;1.38;;;2.70;99.90;;;;;;5033269;28;20212;-71
2021/12/04 08:15:29;;;;;;;2.15;1.85;;;2.70;99.90;;;;;;5033321;28;20209;-71
2021/12/04 08:17:57;;;;;;;4.55;2.55;;;2.70;99.90;;;;;;5033278;28;20282;-72
2021/12/04 08:20:25;;;;;;;3.13;2.33;;;2.70;99.90;;;;;;5033459;28;20248;-72
2021/12/04 08:22:52;;;;;;;4.55;2.28;;;2.70;99.90;;;;;;5033810;28;20236;-72
2021/12/04 08:25:22;;;;;;;5.28;2.17;;;2.70;99.90;;;;;;5037456;28;20221;-71
2021/12/04 08:27:50;;;;;;;2.25;1.90;;;2.70;99.90;;;;;;5037603;28;20212;-72
2021/12/04 08:30:20;;;;;;;2.05;1.75;;;2.70;99.90;;;;;;5037426;28;20209;-72
2021/12/04 08:32:49;;;;;;;4.47;2.22;;;2.70;99.90;;;;;;5038268;28;20251;-72
2021/12/04 08:35:18;;;;;;;2.30;2.00;;;2.70;99.90;;;;;;5037175;28;20233;-73
2021/12/04 08:37:45;;;;;;;3.15;2.10;;;2.70;99.90;;;;;;5036653;28;20186;-73
2021/12/04 08:40:15;;;;;;;3.95;2.45;;;2.70;99.90;;;;;;5036836;28;20189;-72
2021/12/04 08:42:44;;;;;;;4.07;2.10;;;2.80;99.90;;;;;;5036648;28;20222;-72
2021/12/04 08:45:12;;;;;;;2.85;2.08;;;2.80;99.90;;;;;;5036936;28;20256;-71
2021/12/04 08:47:39;;;;;;;2.53;2.10;;;2.80;99.90;;;;;;5036924;28;20285;-71
2021/12/04 08:50:07;;;;;;;1.92;1.73;;;2.80;99.90;;;;;;5036950;28;20730;-72
2021/12/04 08:52:34;;;;;;;2.42;1.65;;;2.90;99.90;;;;;;5037126;28;20221;-71
2021/12/04 08:55:00;;;;;;;2.55;1.70;;;2.90;99.90;;;;;;5036581;28;20237;-71
2021/12/04 08:57:27;;;;;;;2.45;1.65;;;2.90;99.90;;;;;;5036312;28;20201;-71
2021/12/04 08:59:56;;;;;;;2.83;1.60;;;3.00;99.90;;;;;;5036536;28;20263;-73
2021/12/04 09:02:25;;;;;;;2.03;1.88;;;3.10;99.90;;;;;;5036403;28;20241;-72
2021/12/04 09:04:56;;;;;;;1.92;1.70;;;3.10;99.90;;;;;;5036520;28;20654;-72
2021/12/04 09:07:23;;;;;;;1.42;1.38;;;3.10;99.90;;;;;;5036393;28;20277;-72
2021/12/04 09:09:54;;;;;;;1.70;1.60;;;3.20;99.90;;;;;;5036515;28;20283;-72
2021/12/04 09:12:28;;;;;;;1.63;1.30;;;3.20;99.90;;;;;;5035965;28;20227;-72
2021/12/04 09:15:07;;;;;;;1.65;1.58;;;3.30;99.90;;;;;;5035969;28;20185;-73
2021/12/04 09:17:37;;;;;;;3.78;2.08;;;3.30;99.90;;;;;;5035836;28;20182;-71
2021/12/04 09:20:07;;;;;;;1.88;1.77;;;3.30;99.90;;;;;;5036201;28;20197;-71
2021/12/04 09:22:36;;;;;;;2.67;2.47;;;3.40;99.90;;;;;;5037129;28;20225;-72
2021/12/04 09:25:05;;;;;;;3.35;2.08;;;3.40;99.90;;;;;;5039169;28;20307;-73
2021/12/04 09:27:40;;;;;;;2.03;1.90;;;3.40;99.90;;;;;;5042897;28;20584;-72
2021/12/04 09:30:26;;;;;;;1.92;1.83;;;3.50;99.90;;;;;;5042060;28;20189;-69
2021/12/04 09:33:30;;;;;;;2.00;1.90;;;3.60;99.90;;;;;;5038914;28;20225;-69
2021/12/04 10:00:58;;;;;;;1.15;1.15;;;4.10;99.90;;;;;;5035096;28;20236;-70
2021/12/04 10:18:11;;;;;;;0.90;0.90;;;5.00;99.90;;;;;;5035270;28;20248;-73
2021/12/04 10:20:49;;;;;;;0.70;0.70;;;5.10;99.90;;;;;;5035218;28;20182;-73
2021/12/04 10:34:16;;;;;;;0.60;0.60;;;5.50;99.90;;;;;;5035317;28;20231;-73
2021/12/04 10:36:45;;;;;;;1.00;1.00;;;5.50;99.90;;;;;;5035046;28;20236;-73
2021/12/04 10:39:14;;;;;;;0.80;0.80;;;5.50;99.90;;;;;;5034815;28;20563;-73
2021/12/04 10:41:43;;;;;;;0.82;0.60;;;5.60;99.90;;;;;;5034506;28;20596;-73
2021/12/04 10:44:15;;;;;;;0.50;0.50;;;5.60;99.90;;;;;;5034996;28;20212;-72
2021/12/04 10:46:54;;;;;;;0.60;0.60;;;5.60;99.90;;;;;;5035059;28;20239;-73
2021/12/04 10:49:44;;;;;;;0.50;0.50;;;5.70;99.90;;;;;;5035350;28;20197;-73
2021/12/04 10:52:23;;;;;;;0.90;0.90;;;5.70;99.90;;;;;;5035432;28;20225;-71
2021/12/04 10:54:53;;;;;;;0.60;0.60;;;5.70;99.90;;;;;;5034307;28;20626;-73
2021/12/04 11:00:14;;;;;;;0.65;0.65;;;5.80;99.90;;;;;;5027453;28;20185;-71
2021/12/04 11:02:43;;;;;;;0.50;0.50;;;6.30;99.90;;;;;;5034165;28;20620;-72
2021/12/04 11:05:42;;;;;;;0.52;0.52;;;5.80;99.90;;;;;;5034111;28;20315;-73
2021/12/04 13:53:54;;;;;;;0.65;0.65;;;6.10;99.90;;;;;;5058525;23;20236;-68
2021/12/04 13:56:23;;;;;;;0.50;0.50;;;6.00;99.90;;;;;;4938584;29;20196;-68
2021/12/04 13:58:54;;;;;;;0.60;0.60;;;6.00;99.90;;;;;;4938745;29;20211;-67
2021/12/04 14:01:22;;;;;;;0.80;0.80;;;6.00;99.90;;;;;;4938329;29;20255;-67
2021/12/04 14:03:49;;;;;;;0.50;0.50;;;6.00;99.90;;;;;;4937864;29;20257;-67
2021/12/04 14:06:18;;;;;;;0.40;0.40;;;6.10;99.90;;;;;;4938699;29;20221;-71
2021/12/04 14:08:59;;;;;;;0.50;0.50;;;6.10;99.90;;;;;;4938083;29;20212;-72
2021/12/04 14:11:31;;;;;;;0.50;0.50;;;6.10;99.90;;;;;;4938042;29;20203;-69
2021/12/04 14:13:58;;;;;;;0.50;0.50;;;6.10;99.90;;;;;;4937710;29;20309;-69
2021/12/04 14:16:25;;;;;;;0.57;0.57;;;6.00;99.90;;;;;;4937880;29;20534;-70
2021/12/04 14:18:53;;;;;;;0.57;0.57;;;6.10;99.90;;;;;;4937595;29;20732;-70
2021/12/04 14:21:20;;;;;;;0.52;0.52;;;6.10;99.90;;;;;;4936605;29;20724;-69
2021/12/04 14:23:48;;;;;;;0.70;0.70;;;6.00;99.90;;;;;;4937618;29;20220;-69
2021/12/04 14:26:16;;;;;;;0.50;0.50;;;6.00;99.90;;;;;;4937231;29;20227;-71
2021/12/04 14:28:44;;;;;;;0.45;0.45;;;6.00;99.90;;;;;;4937724;29;20287;-70
2021/12/04 14:31:12;;;;;;;0.60;0.60;;;6.00;99.90;;;;;;4937357;29;20208;-70
2021/12/04 14:33:42;;;;;;;0.60;0.60;;;6.00;99.90;;;;;;4937162;29;20315;-70
2021/12/04 14:36:11;;;;;;;0.52;0.52;;;6.00;99.90;;;;;;4937201;29;20217;-70
2021/12/04 14:38:44;;;;;;;0.77;0.77;;;5.90;99.90;;;;;;4937018;29;20208;-71
2021/12/04 14:41:11;;;;;;;0.70;0.70;;;5.90;99.90;;;;;;4937044;29;20628;-70
2021/12/04 14:43:40;;;;;;;0.70;0.70;;;5.90;99.90;;;;;;4937214;29;20283;-70
2021/12/04 14:46:11;;;;;;;0.65;0.65;;;5.90;99.90;;;;;;4937276;29;20324;-70
2021/12/04 14:48:44;;;;;;;0.70;0.70;;;5.80;99.90;;;;;;4937172;29;20284;-69
2021/12/04 14:51:14;;;;;;;0.68;0.68;;;5.80;99.90;;;;;;4942212;29;20531;-67
2021/12/04 14:53:47;;;;;;;0.60;0.60;;;5.80;99.90;;;;;;4937544;29;20236;-69
2021/12/04 14:56:15;;;;;;;0.60;0.60;;;5.80;99.90;;;;;;4937816;29;20205;-68
2021/12/04 14:58:43;;;;;;;0.60;0.60;;;5.80;99.90;;;;;;4937403;29;20723;-67
2021/12/04 15:01:13;;;;;;;0.50;0.50;;;5.80;99.90;;;;;;4937290;29;20200;-67
2021/12/04 15:03:43;;;;;;;0.60;0.60;;;5.80;99.90;;;;;;4937636;29;20311;-69
2021/12/04 15:06:12;;;;;;;0.63;0.63;;;5.80;99.90;;;;;;4938527;29;20231;-67
2021/12/04 15:08:41;;;;;;;0.60;0.60;;;5.80;99.90;;;;;;4937441;29;20291;-67
2021/12/04 15:11:11;;;;;;;0.60;0.60;;;5.80;99.90;;;;;;4937195;29;20279;-66
2021/12/04 15:13:41;;;;;;;0.60;0.60;;;5.80;99.90;;;;;;4937303;29;20320;-68
2021/12/04 15:16:14;;;;;;;0.63;0.63;;;5.80;99.90;;;;;;4937558;29;20193;-67
2021/12/04 15:18:41;;;;;;;0.50;0.50;;;5.80;99.90;;;;;;4937798;29;20612;-66
2021/12/04 15:21:12;;;;;;;0.52;0.52;;;5.70;99.90;;;;;;4938434;29;20295;-67
2021/12/04 15:23:39;;;;;;;0.52;0.52;;;5.70;99.90;;;;;;4937548;29;20260;-68
2021/12/04 15:26:12;;;;;;;0.45;0.45;;;5.70;99.90;;;;;;4938567;29;20232;-69
2021/12/04 15:28:45;;;;;;;0.50;0.50;;;5.70;99.90;;;;;;4936643;29;20287;-70
2021/12/04 15:31:14;;;;;;;0.75;0.40;;;5.70;99.90;;;;;;4936490;29;20287;-70
2021/12/04 15:33:42;;;;;;;0.50;0.50;;;5.70;99.90;;;;;;4937087;29;20224;-71
2021/12/04 15:36:21;;;;;;;0.50;0.50;;;5.70;99.90;;;;;;4936707;29;20287;-71
2021/12/04 15:38:51;;;;;;;0.60;0.60;;;5.70;99.90;;;;;;4936591;29;20656;-68
2021/12/04 15:41:30;;;;;;;1.75;1.63;;;5.70;99.90;;;;;;4937059;29;20672;-66
2021/12/04 15:44:05;;;;;;;1.48;1.15;;;5.70;99.90;;;;;;4939325;29;20649;-66
2021/12/04 15:46:40;;;;;;;1.30;1.30;;;5.70;99.90;;;;;;4937415;29;20209;-68
2021/12/04 15:54:45;;;;;;;1.80;1.75;;;5.70;99.90;;;;;;4936540;29;20307;-71
2021/12/04 15:57:14;;;;;;;1.42;1.33;;;5.70;99.90;;;;;;4937251;29;20228;-73
2021/12/04 15:59:46;;;;;;;1.50;1.40;;;5.70;99.90;;;;;;4937040;29;20206;-73
2021/12/04 16:02:19;;;;;;;1.40;1.40;;;5.70;99.90;;;;;;4936719;29;20228;-71
2021/12/04 16:04:48;;;;;;;1.13;1.13;;;5.70;99.90;;;;;;4936152;29;20185;-71
2021/12/04 16:07:25;;;;;;;1.10;1.10;;;5.70;99.90;;;;;;4935976;29;20221;-70
2021/12/04 16:09:51;;;;;;;1.02;1.02;;;5.70;99.90;;;;;;4936668;29;20185;-71
2021/12/04 16:12:22;;;;;;;1.52;1.45;;;5.80;99.90;;;;;;4936273;29;20220;-72
2021/12/04 16:14:55;;;;;;;0.93;0.93;;;5.70;99.90;;;;;;4936148;29;20189;-72
2021/12/04 16:17:24;;;;;;;1.00;1.00;;;5.70;99.90;;;;;;4936540;29;20280;-73
2021/12/04 16:20:02;;;;;;;1.50;1.50;;;5.80;99.90;;;;;;4936665;29;20264;-72
2021/12/04 16:22:35;;;;;;;1.20;1.20;;;5.70;99.90;;;;;;4936269;29;20260;-71
2021/12/04 16:25:04;;;;;;;1.50;1.40;;;5.70;99.90;;;;;;4936365;29;20264;-72
2021/12/04 16:27:44;;;;;;;2.17;1.92;;;5.70;99.90;;;;;;4936282;29;20295;-73
2021/12/04 16:30:26;;;;;;;1.95;1.85;;;5.60;99.90;;;;;;4936775;29;20628;-74
2021/12/04 16:33:02;;;;;;;2.05;1.95;;;5.50;99.90;;;;;;4936040;29;20224;-73
2021/12/04 16:35:41;;;;;;;2.50;2.35;;;5.50;99.90;;;;;;4935991;29;20189;-73
2021/12/04 16:38:11;;;;;;;2.40;2.20;;;5.40;99.90;;;;;;4936223;29;20189;-73
2021/12/04 16:40:41;;;;;;;2.08;1.98;;;5.30;99.90;;;;;;4936223;29;20297;-73
2021/12/04 16:43:12;;;;;;;2.53;2.20;;;5.30;99.90;;;;;;4935647;29;20221;-73
2021/12/04 16:45:41;;;;;;;2.20;2.00;;;5.20;99.90;;;;;;4938855;29;20216;-73
2021/12/04 16:48:12;;;;;;;2.83;2.63;;;5.20;99.90;;;;;;4939209;29;20296;-73
2021/12/04 16:54:50;;;;;;;2.42;2.20;;;5.10;99.90;;;;;;4939892;29;20236;-73
2021/12/04 16:56:28;;;;;;;2.30;2.20;;;5.00;99.90;;;;;;4939376;29;20280;-74
2021/12/04 16:58:57;;;;;;;2.03;1.92;;;4.90;99.90;;;;;;4939261;29;20228;-74
2021/12/04 17:01:25;;;;;;;2.03;1.92;;;4.80;99.90;;;;;;4939134;29;20209;-73
2021/12/04 17:03:54;;;;;;;1.98;1.88;;;4.80;99.90;;;;;;4939014;29;20323;-74
2021/12/04 17:06:21;;;;;;;1.60;1.60;;;4.80;99.90;;;;;;4938937;29;20311;-74
2021/12/04 17:08:48;;;;;;;2.00;1.85;;;4.80;99.90;;;;;;4938720;29;20304;-74
2021/12/04 17:11:15;;;;;;;1.45;1.35;;;4.80;99.90;;;;;;4938812;29;20189;-74
2021/12/04 17:13:43;;;;;;;2.03;1.92;;;4.70;99.90;;;;;;4938975;29;20307;-73
2021/12/04 17:16:12;;;;;;;1.60;1.60;;;4.70;99.90;;;;;;4938853;29;20205;-71
2021/12/04 17:18:47;;;;;;;2.08;1.70;;;4.80;99.90;;;;;;4939441;29;20193;-71
2021/12/04 17:21:15;;;;;;;1.30;1.30;;;4.80;99.90;;;;;;4939223;29;20248;-72
2021/12/04 17:23:42;;;;;;;1.38;1.20;;;4.90;99.90;;;;;;4939110;29;20311;-71
2021/12/04 17:26:10;;;;;;;1.00;1.00;;;4.90;99.90;;;;;;4941510;29;20288;-71
2021/12/04 17:28:43;;;;;;;2.03;1.30;;;4.90;99.90;;;;;;4941634;29;20243;-71
2021/12/04 17:31:10;;;;;;;1.40;1.38;;;5.00;99.90;;;;;;4942545;29;20225;-73
2021/12/04 17:33:36;;;;;;;1.20;1.17;;;5.00;99.90;;;;;;4941781;29;20266;-73
2021/12/04 17:36:04;;;;;;;1.17;1.17;;;4.90;99.90;;;;;;4939013;29;20292;-73
2021/12/04 17:38:33;;;;;;;1.30;1.30;;;5.00;99.90;;;;;;4939227;29;20208;-74
2021/12/04 17:40:59;;;;;;;1.33;1.00;;;5.00;99.90;;;;;;4938758;29;20212;-73
2021/12/04 17:43:26;;;;;;;1.13;1.00;;;5.00;99.90;;;;;;4938693;29;20312;-73
2021/12/04 17:45:53;;;;;;;0.70;0.70;;;5.00;99.90;;;;;;4939212;29;20221;-72
2021/12/04 17:48:23;;;;;;;0.80;0.80;;;4.90;99.90;;;;;;4938552;29;20287;-72
2021/12/04 17:50:50;;;;;;;0.70;0.70;;;4.90;99.90;;;;;;4938316;29;20204;-73
2021/12/04 17:53:17;;;;;;;0.60;0.60;;;4.80;99.90;;;;;;4938231;29;20312;-72
2021/12/04 17:55:45;;;;;;;0.80;0.80;;;4.80;99.90;;;;;;4938406;29;20284;-72
2021/12/04 17:58:13;;;;;;;0.70;0.70;;;4.80;99.90;;;;;;4938186;29;20276;-72
2021/12/04 18:00:46;;;;;;;1.10;1.10;;;4.80;99.90;;;;;;4938523;29;20205;-72
2021/12/04 18:03:14;;;;;;;1.00;0.90;;;4.80;99.90;;;;;;4938343;29;20224;-73
2021/12/04 18:05:42;;;;;;;1.67;1.25;;;4.80;99.90;;;;;;4938222;29;20200;-73
2021/12/04 18:08:12;;;;;;;1.60;1.15;;;4.80;99.90;;;;;;4938117;29;20280;-72
2021/12/04 18:10:40;;;;;;;1.00;1.00;;;4.80;99.90;;;;;;4938007;29;20637;-73
2021/12/04 18:13:13;;;;;;;1.33;1.33;;;4.80;99.90;;;;;;4937772;29;20792;-72
2021/12/04 18:15:43;;;;;;;0.90;0.90;;;4.80;99.90;;;;;;4938448;29;20556;-71
2021/12/04 18:18:10;;;;;;;0.88;0.88;;;4.90;99.90;;;;;;4938375;29;20275;-73
2021/12/04 18:20:38;;;;;;;2.15;0.80;;;4.90;99.90;;;;;;4937881;29;20292;-72
2021/12/04 18:23:06;;;;;;;0.80;0.80;;;4.80;99.90;;;;;;4937808;29;20231;-72
2021/12/04 18:25:33;;;;;;;1.20;1.20;;;4.90;99.90;;;;;;4937616;29;20209;-71
2021/12/04 18:28:02;;;;;;;0.93;0.93;;;4.90;99.90;;;;;;4937693;29;20246;-70
2021/12/04 18:30:33;;;;;;;1.00;1.00;;;4.90;99.90;;;;;;4937779;29;20207;-72
2021/12/04 18:33:02;;;;;;;1.10;1.10;;;4.90;99.90;;;;;;4937348;29;20292;-71
2021/12/04 18:35:31;;;;;;;0.80;0.80;;;4.90;99.90;;;;;;4937608;29;20205;-71
2021/12/04 18:37:59;;;;;;;0.82;0.82;;;5.00;99.90;;;;;;4937223;29;20249;-72
2021/12/04 18:40:28;;;;;;;0.85;0.85;;;5.00;99.90;;;;;;4937473;29;20208;-71
2021/12/04 18:42:55;;;;;;;0.77;0.77;;;5.00;99.90;;;;;;4937117;29;20252;-71
2021/12/04 18:45:23;;;;;;;0.93;0.77;;;5.00;99.90;;;;;;4937103;29;20558;-72
2021/12/04 18:47:57;;;;;;;0.88;0.88;;;5.00;99.90;;;;;;4937219;29;20225;-73
2021/12/04 18:50:25;;;;;;;1.40;1.30;;;5.00;99.90;;;;;;4937197;29;20716;-72
2021/12/04 18:52:53;;;;;;;3.38;2.13;;;5.00;99.90;;;;;;4937227;29;20238;-72
2021/12/04 18:55:22;;;;;;;2.33;2.22;;;5.00;99.90;;;;;;4936868;29;20218;-71
2021/12/04 18:57:49;;;;;;;0.80;0.80;;;4.90;99.90;;;;;;4936760;29;20688;-71
2021/12/04 19:00:17;;;;;;;0.70;0.70;;;4.80;99.90;;;;;;4937021;29;20216;-72
2021/12/04 19:02:47;;;;;;;0.57;0.57;;;4.60;99.90;;;;;;4936926;29;20228;-71
2021/12/04 19:05:17;;;;;;;0.70;0.70;;;4.50;99.90;;;;;;4936750;29;20185;-71
2021/12/04 19:07:44;;;;;;;0.70;0.70;;;4.40;99.90;;;;;;4936082;29;20700;-72
2021/12/04 19:10:13;;;;;;;0.63;0.60;;;4.40;99.90;;;;;;4936719;29;20205;-73
2021/12/04 19:12:42;;;;;;;0.60;0.60;;;4.30;99.90;;;;;;4936526;29;20665;-73
2021/12/04 19:15:11;;;;;;;0.60;0.60;;;4.20;99.90;;;;;;4936922;29;20231;-73
2021/12/04 19:17:40;;;;;;;0.60;0.60;;;4.10;99.90;;;;;;4936700;29;20295;-73
2021/12/04 19:20:11;;;;;;;0.60;0.60;;;4.00;99.90;;;;;;4936357;29;20661;-73
2021/12/04 19:22:41;;;;;;;0.40;0.40;;;3.90;99.90;;;;;;4936421;29;20233;-72
2021/12/04 19:25:10;;;;;;;0.70;0.70;;;3.70;99.90;;;;;;4936713;29;20549;-74
2021/12/04 19:27:38;;;;;;;0.60;0.60;;;3.70;99.90;;;;;;4936422;29;20787;-73
2021/12/04 19:30:06;;;;;;;0.55;0.55;;;3.60;99.90;;;;;;4936345;29;20296;-73
2021/12/04 19:32:39;;;;;;;0.50;0.50;;;3.50;99.90;;;;;;4936255;29;20746;-73
2021/12/04 19:49:21;;;;;;;0.50;0.50;;;3.20;99.90;;;;;;4936405;29;20184;-73
2021/12/04 19:51:49;;;;;;;0.50;0.50;;;3.20;99.90;;;;;;4936366;29;20667;-73
2021/12/04 19:54:26;;;;;;;0.50;0.50;;;3.20;99.90;;;;;;4936412;29;20279;-72
2021/12/04 19:57:02;;;;;;;0.60;0.60;;;3.20;99.90;;;;;;4936489;29;20189;-73
2021/12/04 19:59:29;;;;;;;0.70;0.70;;;2.90;99.90;;;;;;4936533;29;20275;-73
2021/12/04 20:02:06;;;;;;;0.55;0.55;;;3.10;99.90;;;;;;4936269;29;20205;-73
2021/12/04 20:04:43;;;;;;;0.60;0.60;;;3.10;99.90;;;;;;4947731;23;20180;-68
2021/12/04 20:07:22;;;;;;;0.80;0.80;;;3.00;99.90;;;;;;4917357;29;20273;-68
2021/12/04 20:13:09;;;;;;;0.60;0.60;;;3.00;99.90;;;;;;4917357;29;20197;-68
2021/12/04 20:15:40;;;;;;;0.80;0.80;;;3.00;99.90;;;;;;4917305;29;20307;-68
2021/12/04 20:18:11;;;;;;;1.20;1.20;;;3.00;99.90;;;;;;4918023;29;20208;-68
2021/12/04 20:20:44;;;;;;;1.95;1.13;;;3.00;99.90;;;;;;4920986;29;20605;-68
2021/12/04 20:23:19;;;;;;;0.98;0.98;;;3.00;99.90;;;;;;4920729;29;20185;-69
2021/12/04 20:25:51;;;;;;;0.93;0.93;;;2.90;99.90;;;;;;4920923;29;20224;-69
2021/12/04 20:28:23;;;;;;;1.67;1.60;;;2.90;99.90;;;;;;4920401;29;20217;-69
2021/12/04 20:30:58;;;;;;;1.80;1.70;;;2.90;99.90;;;;;;4919981;29;20194;-70
2021/12/04 20:33:30;;;;;;;1.45;1.35;;;3.00;99.90;;;;;;4920215;29;20190;-70
2021/12/04 21:09:25;;;;;;;0.70;0.70;;;2.60;99.90;;;;;;4910128;29;20198;-71
2021/12/04 21:50:22;;;;;;;0.70;0.70;;;2.50;99.90;;;;;;4919818;29;20193;-71